sensor_id;sensor_type;location;lat;lon;timestamp;P1;durP1;ratioP1;P2;durP2;ratioP2
76693;SDS011;69667;52.136;5.424;2023-07-16T00:00:19;5.75;;;1.55;;
76693;SDS011;69667;52.136;5.424;2023-07-16T00:02:53;5.82;;;1.35;;
76693;SDS011;69667;52.136;5.424;2023-07-16T00:05:19;5.75;;;1.40;;
76693;SDS011;69667;52.136;5.424;2023-07-16T00:07:46;4.30;;;1.30;;
76693;SDS011;69667;52.136;5.424;2023-07-16T00:10:13;3.38;;;1.50;;
76693;SDS011;69667;52.136;5.424;2023-07-16T00:12:40;7.40;;;2.00;;
76693;SDS011;69667;52.136;5.424;2023-07-16T00:15:06;7.88;;;1.30;;
76693;SDS011;69667;52.136;5.424;2023-07-16T00:17:34;5.13;;;1.20;;
76693;SDS011;69667;52.136;5.424;2023-07-16T00:20:01;6.15;;;1.40;;
76693;SDS011;69667;52.136;5.424;2023-07-16T00:22:27;7.35;;;1.73;;
76693;SDS011;69667;52.136;5.424;2023-07-16T00:24:54;5.43;;;1.70;;
76693;SDS011;69667;52.136;5.424;2023-07-16T00:27:21;11.60;;;1.55;;
76693;SDS011;69667;52.136;5.424;2023-07-16T00:29:47;3.78;;;1.40;;
76693;SDS011;69667;52.136;5.424;2023-07-16T00:32:14;7.38;;;1.80;;
76693;SDS011;69667;52.136;5.424;2023-07-16T00:34:40;5.22;;;1.48;;
76693;SDS011;69667;52.136;5.424;2023-07-16T00:37:07;3.97;;;1.50;;
76693;SDS011;69667;52.136;5.424;2023-07-16T00:39:34;6.20;;;1.95;;
76693;SDS011;69667;52.136;5.424;2023-07-16T00:42:00;5.93;;;1.60;;
76693;SDS011;69667;52.136;5.424;2023-07-16T00:44:27;7.50;;;1.77;;
76693;SDS011;69667;52.136;5.424;2023-07-16T00:46:53;7.15;;;1.77;;
76693;SDS011;69667;52.136;5.424;2023-07-16T00:49:21;4.03;;;1.42;;
76693;SDS011;69667;52.136;5.424;2023-07-16T00:51:47;7.32;;;1.40;;
76693;SDS011;69667;52.136;5.424;2023-07-16T00:54:14;5.95;;;1.77;;
76693;SDS011;69667;52.136;5.424;2023-07-16T00:56:40;7.80;;;1.55;;
76693;SDS011;69667;52.136;5.424;2023-07-16T00:59:07;6.25;;;1.60;;
76693;SDS011;69667;52.136;5.424;2023-07-16T01:01:35;4.68;;;1.45;;
76693;SDS011;69667;52.136;5.424;2023-07-16T01:04:01;8.77;;;1.40;;
76693;SDS011;69667;52.136;5.424;2023-07-16T01:06:36;9.57;;;2.10;;
76693;SDS011;69667;52.136;5.424;2023-07-16T01:09:16;6.03;;;1.50;;
76693;SDS011;69667;52.136;5.424;2023-07-16T01:11:44;5.90;;;1.55;;
76693;SDS011;69667;52.136;5.424;2023-07-16T01:14:12;6.63;;;1.80;;
76693;SDS011;69667;52.136;5.424;2023-07-16T01:16:40;5.18;;;1.77;;
76693;SDS011;69667;52.136;5.424;2023-07-16T01:19:07;7.75;;;1.60;;
76693;SDS011;69667;52.136;5.424;2023-07-16T01:27:43;8.82;;;2.03;;
76693;SDS011;69667;52.136;5.424;2023-07-16T01:30:16;6.60;;;1.80;;
76693;SDS011;69667;52.136;5.424;2023-07-16T01:32:45;5.82;;;1.92;;
76693;SDS011;69667;52.136;5.424;2023-07-16T01:35:13;3.72;;;1.63;;
76693;SDS011;69667;52.136;5.424;2023-07-16T01:37:41;6.45;;;2.15;;
76693;SDS011;69667;52.136;5.424;2023-07-16T01:40:08;6.80;;;2.20;;
76693;SDS011;69667;52.136;5.424;2023-07-16T01:42:35;5.97;;;1.70;;
76693;SDS011;69667;52.136;5.424;2023-07-16T01:45:02;5.90;;;1.85;;
76693;SDS011;69667;52.136;5.424;2023-07-16T01:50:30;6.20;;;2.10;;
76693;SDS011;69667;52.136;5.424;2023-07-16T01:52:57;9.15;;;2.30;;
76693;SDS011;69667;52.136;5.424;2023-07-16T01:55:24;5.63;;;1.90;;
76693;SDS011;69667;52.136;5.424;2023-07-16T01:57:51;9.18;;;1.90;;
76693;SDS011;69667;52.136;5.424;2023-07-16T02:00:17;5.95;;;2.15;;
76693;SDS011;69667;52.136;5.424;2023-07-16T02:02:49;9.52;;;2.40;;
76693;SDS011;69667;52.136;5.424;2023-07-16T02:05:16;8.65;;;2.42;;
76693;SDS011;69667;52.136;5.424;2023-07-16T02:07:42;7.93;;;2.08;;
76693;SDS011;69667;52.136;5.424;2023-07-16T02:10:09;7.43;;;2.83;;
76693;SDS011;69667;52.136;5.424;2023-07-16T02:12:36;7.63;;;2.28;;
76693;SDS011;69667;52.136;5.424;2023-07-16T02:15:02;9.25;;;2.45;;
76693;SDS011;69667;52.136;5.424;2023-07-16T02:17:34;10.07;;;2.50;;
76693;SDS011;69667;52.136;5.424;2023-07-16T02:20:01;13.30;;;2.83;;
76693;SDS011;69667;52.136;5.424;2023-07-16T02:22:29;10.73;;;2.75;;
76693;SDS011;69667;52.136;5.424;2023-07-16T02:24:56;8.27;;;2.75;;
76693;SDS011;69667;52.136;5.424;2023-07-16T02:27:23;4.90;;;2.33;;
76693;SDS011;69667;52.136;5.424;2023-07-16T02:29:49;8.85;;;2.80;;
76693;SDS011;69667;52.136;5.424;2023-07-16T02:32:16;8.65;;;2.60;;
76693;SDS011;69667;52.136;5.424;2023-07-16T02:34:43;8.05;;;2.42;;
76693;SDS011;69667;52.136;5.424;2023-07-16T02:37:09;9.98;;;2.70;;
76693;SDS011;69667;52.136;5.424;2023-07-16T02:39:38;7.70;;;2.53;;
76693;SDS011;69667;52.136;5.424;2023-07-16T02:42:05;7.72;;;2.55;;
76693;SDS011;69667;52.136;5.424;2023-07-16T02:44:31;5.20;;;1.90;;
76693;SDS011;69667;52.136;5.424;2023-07-16T02:46:58;8.75;;;2.45;;
76693;SDS011;69667;52.136;5.424;2023-07-16T02:49:24;7.10;;;2.80;;
76693;SDS011;69667;52.136;5.424;2023-07-16T02:51:51;9.75;;;2.38;;
76693;SDS011;69667;52.136;5.424;2023-07-16T02:54:18;5.45;;;2.28;;
76693;SDS011;69667;52.136;5.424;2023-07-16T02:56:44;10.15;;;2.58;;
76693;SDS011;69667;52.136;5.424;2023-07-16T02:59:11;5.32;;;2.10;;
76693;SDS011;69667;52.136;5.424;2023-07-16T03:01:37;8.52;;;2.08;;
76693;SDS011;69667;52.136;5.424;2023-07-16T03:04:04;9.90;;;2.42;;
76693;SDS011;69667;52.136;5.424;2023-07-16T03:06:30;9.18;;;2.53;;
76693;SDS011;69667;52.136;5.424;2023-07-16T03:08:58;11.80;;;2.60;;
76693;SDS011;69667;52.136;5.424;2023-07-16T03:11:24;5.57;;;2.30;;
76693;SDS011;69667;52.136;5.424;2023-07-16T03:13:52;11.45;;;2.38;;
76693;SDS011;69667;52.136;5.424;2023-07-16T03:16:18;8.32;;;2.40;;
76693;SDS011;69667;52.136;5.424;2023-07-16T03:18:45;4.03;;;1.75;;
76693;SDS011;69667;52.136;5.424;2023-07-16T03:21:13;9.73;;;2.15;;
76693;SDS011;69667;52.136;5.424;2023-07-16T03:23:40;7.18;;;1.98;;
76693;SDS011;69667;52.136;5.424;2023-07-16T03:26:07;9.55;;;2.90;;
76693;SDS011;69667;52.136;5.424;2023-07-16T03:28:34;5.45;;;2.13;;
76693;SDS011;69667;52.136;5.424;2023-07-16T03:31:03;7.47;;;2.28;;
76693;SDS011;69667;52.136;5.424;2023-07-16T03:33:32;5.50;;;2.20;;
76693;SDS011;69667;52.136;5.424;2023-07-16T03:35:58;8.82;;;2.50;;
76693;SDS011;69667;52.136;5.424;2023-07-16T03:38:25;6.95;;;2.10;;
76693;SDS011;69667;52.136;5.424;2023-07-16T03:40:52;8.48;;;2.42;;
76693;SDS011;69667;52.136;5.424;2023-07-16T03:43:18;6.22;;;2.00;;
76693;SDS011;69667;52.136;5.424;2023-07-16T03:45:46;5.72;;;2.55;;
76693;SDS011;69667;52.136;5.424;2023-07-16T03:48:13;7.68;;;2.00;;
76693;SDS011;69667;52.136;5.424;2023-07-16T03:50:40;6.57;;;2.20;;
76693;SDS011;69667;52.136;5.424;2023-07-16T03:53:07;12.25;;;2.63;;
76693;SDS011;69667;52.136;5.424;2023-07-16T03:55:33;8.52;;;2.20;;
76693;SDS011;69667;52.136;5.424;2023-07-16T03:58:01;9.35;;;2.20;;
76693;SDS011;69667;52.136;5.424;2023-07-16T04:00:27;10.13;;;2.60;;
76693;SDS011;69667;52.136;5.424;2023-07-16T04:02:54;6.30;;;2.30;;
76693;SDS011;69667;52.136;5.424;2023-07-16T04:05:21;8.02;;;2.20;;
76693;SDS011;69667;52.136;5.424;2023-07-16T04:07:50;7.07;;;2.15;;
76693;SDS011;69667;52.136;5.424;2023-07-16T04:10:17;7.55;;;2.83;;
76693;SDS011;69667;52.136;5.424;2023-07-16T04:12:43;6.60;;;2.78;;
76693;SDS011;69667;52.136;5.424;2023-07-16T04:15:11;11.70;;;2.20;;
76693;SDS011;69667;52.136;5.424;2023-07-16T04:17:38;6.93;;;2.33;;
76693;SDS011;69667;52.136;5.424;2023-07-16T04:20:05;7.05;;;2.58;;
76693;SDS011;69667;52.136;5.424;2023-07-16T04:22:33;9.10;;;2.90;;
76693;SDS011;69667;52.136;5.424;2023-07-16T04:25:01;8.80;;;3.20;;
76693;SDS011;69667;52.136;5.424;2023-07-16T04:27:27;10.32;;;2.85;;
76693;SDS011;69667;52.136;5.424;2023-07-16T04:29:54;7.40;;;2.63;;
76693;SDS011;69667;52.136;5.424;2023-07-16T04:32:21;6.20;;;2.25;;
76693;SDS011;69667;52.136;5.424;2023-07-16T04:34:48;8.40;;;2.90;;
76693;SDS011;69667;52.136;5.424;2023-07-16T04:37:14;8.60;;;2.95;;
76693;SDS011;69667;52.136;5.424;2023-07-16T04:39:41;6.85;;;2.95;;
76693;SDS011;69667;52.136;5.424;2023-07-16T04:42:07;6.65;;;2.53;;
76693;SDS011;69667;52.136;5.424;2023-07-16T04:44:34;7.35;;;2.90;;
76693;SDS011;69667;52.136;5.424;2023-07-16T04:47:00;9.25;;;3.33;;
76693;SDS011;69667;52.136;5.424;2023-07-16T04:49:27;6.13;;;2.50;;
76693;SDS011;69667;52.136;5.424;2023-07-16T04:51:54;9.02;;;2.72;;
76693;SDS011;69667;52.136;5.424;2023-07-16T04:54:20;9.65;;;2.65;;
76693;SDS011;69667;52.136;5.424;2023-07-16T04:56:47;7.38;;;2.47;;
76693;SDS011;69667;52.136;5.424;2023-07-16T04:59:13;8.55;;;3.03;;
76693;SDS011;69667;52.136;5.424;2023-07-16T05:01:40;13.57;;;3.20;;
76693;SDS011;69667;52.136;5.424;2023-07-16T05:04:07;5.68;;;2.50;;
76693;SDS011;69667;52.136;5.424;2023-07-16T05:06:34;10.75;;;2.92;;
76693;SDS011;69667;52.136;5.424;2023-07-16T05:09:01;7.50;;;2.58;;
76693;SDS011;69667;52.136;5.424;2023-07-16T05:11:27;9.00;;;3.03;;
76693;SDS011;69667;52.136;5.424;2023-07-16T05:13:54;10.70;;;3.22;;
76693;SDS011;69667;52.136;5.424;2023-07-16T05:16:22;10.40;;;3.00;;
76693;SDS011;69667;52.136;5.424;2023-07-16T05:18:49;7.90;;;2.70;;
76693;SDS011;69667;52.136;5.424;2023-07-16T05:21:15;6.68;;;2.90;;
76693;SDS011;69667;52.136;5.424;2023-07-16T05:23:42;6.63;;;2.78;;
76693;SDS011;69667;52.136;5.424;2023-07-16T05:26:08;10.15;;;2.92;;
76693;SDS011;69667;52.136;5.424;2023-07-16T05:28:35;8.93;;;2.70;;
76693;SDS011;69667;52.136;5.424;2023-07-16T05:31:02;6.60;;;2.63;;
76693;SDS011;69667;52.136;5.424;2023-07-16T05:33:29;7.55;;;2.70;;
76693;SDS011;69667;52.136;5.424;2023-07-16T05:35:56;8.77;;;2.72;;
76693;SDS011;69667;52.136;5.424;2023-07-16T05:38:23;7.05;;;2.88;;
76693;SDS011;69667;52.136;5.424;2023-07-16T05:40:50;8.45;;;2.88;;
76693;SDS011;69667;52.136;5.424;2023-07-16T05:43:16;9.07;;;3.47;;
76693;SDS011;69667;52.136;5.424;2023-07-16T05:45:43;6.18;;;3.15;;
76693;SDS011;69667;52.136;5.424;2023-07-16T05:48:10;6.38;;;2.63;;
76693;SDS011;69667;52.136;5.424;2023-07-16T05:50:36;8.45;;;2.63;;
76693;SDS011;69667;52.136;5.424;2023-07-16T05:53:03;8.15;;;3.08;;
76693;SDS011;69667;52.136;5.424;2023-07-16T05:55:29;8.55;;;3.70;;
76693;SDS011;69667;52.136;5.424;2023-07-16T05:57:56;8.73;;;3.15;;
76693;SDS011;69667;52.136;5.424;2023-07-16T06:00:23;6.40;;;2.80;;
76693;SDS011;69667;52.136;5.424;2023-07-16T06:02:49;6.47;;;3.40;;
76693;SDS011;69667;52.136;5.424;2023-07-16T06:05:16;8.13;;;2.92;;
76693;SDS011;69667;52.136;5.424;2023-07-16T06:07:43;7.00;;;2.88;;
76693;SDS011;69667;52.136;5.424;2023-07-16T06:10:10;5.50;;;3.30;;
76693;SDS011;69667;52.136;5.424;2023-07-16T06:12:37;7.10;;;2.90;;
76693;SDS011;69667;52.136;5.424;2023-07-16T06:15:03;6.63;;;3.65;;
76693;SDS011;69667;52.136;5.424;2023-07-16T06:17:31;7.63;;;3.03;;
76693;SDS011;69667;52.136;5.424;2023-07-16T06:19:58;8.57;;;3.00;;
76693;SDS011;69667;52.136;5.424;2023-07-16T06:22:25;7.25;;;3.00;;
76693;SDS011;69667;52.136;5.424;2023-07-16T06:24:51;5.25;;;3.30;;
76693;SDS011;69667;52.136;5.424;2023-07-16T06:27:18;6.65;;;3.22;;
76693;SDS011;69667;52.136;5.424;2023-07-16T06:29:44;7.63;;;3.40;;
76693;SDS011;69667;52.136;5.424;2023-07-16T06:32:11;7.03;;;3.17;;
76693;SDS011;69667;52.136;5.424;2023-07-16T06:34:37;7.72;;;4.05;;
76693;SDS011;69667;52.136;5.424;2023-07-16T06:37:04;6.97;;;3.25;;
76693;SDS011;69667;52.136;5.424;2023-07-16T06:39:30;7.53;;;2.88;;
76693;SDS011;69667;52.136;5.424;2023-07-16T06:41:57;7.60;;;3.00;;
76693;SDS011;69667;52.136;5.424;2023-07-16T06:44:26;6.82;;;2.88;;
76693;SDS011;69667;52.136;5.424;2023-07-16T06:46:52;6.88;;;3.08;;
76693;SDS011;69667;52.136;5.424;2023-07-16T06:49:19;6.00;;;3.00;;
76693;SDS011;69667;52.136;5.424;2023-07-16T06:51:46;8.18;;;3.17;;
76693;SDS011;69667;52.136;5.424;2023-07-16T06:54:13;6.60;;;3.05;;
76693;SDS011;69667;52.136;5.424;2023-07-16T06:56:39;7.15;;;3.00;;
76693;SDS011;69667;52.136;5.424;2023-07-16T06:59:06;9.32;;;3.20;;
76693;SDS011;69667;52.136;5.424;2023-07-16T07:01:32;6.80;;;3.50;;
76693;SDS011;69667;52.136;5.424;2023-07-16T07:03:59;8.27;;;3.05;;
76693;SDS011;69667;52.136;5.424;2023-07-16T07:06:26;6.43;;;3.10;;
76693;SDS011;69667;52.136;5.424;2023-07-16T07:08:53;6.00;;;3.13;;
76693;SDS011;69667;52.136;5.424;2023-07-16T07:11:20;5.80;;;2.80;;
76693;SDS011;69667;52.136;5.424;2023-07-16T07:13:46;8.25;;;3.10;;
76693;SDS011;69667;52.136;5.424;2023-07-16T07:16:13;7.45;;;3.13;;
76693;SDS011;69667;52.136;5.424;2023-07-16T07:18:40;6.82;;;3.13;;
76693;SDS011;69667;52.136;5.424;2023-07-16T07:21:06;4.97;;;2.97;;
76693;SDS011;69667;52.136;5.424;2023-07-16T07:23:33;7.55;;;3.40;;
76693;SDS011;69667;52.136;5.424;2023-07-16T07:26:00;6.38;;;3.08;;
76693;SDS011;69667;52.136;5.424;2023-07-16T07:28:26;7.05;;;3.00;;
76693;SDS011;69667;52.136;5.424;2023-07-16T07:30:54;7.07;;;2.92;;
76693;SDS011;69667;52.136;5.424;2023-07-16T07:33:21;7.20;;;3.10;;
76693;SDS011;69667;52.136;5.424;2023-07-16T07:35:47;8.02;;;3.13;;
76693;SDS011;69667;52.136;5.424;2023-07-16T07:38:14;6.22;;;3.42;;
76693;SDS011;69667;52.136;5.424;2023-07-16T07:40:42;6.13;;;3.10;;
76693;SDS011;69667;52.136;5.424;2023-07-16T07:43:09;5.78;;;3.17;;
76693;SDS011;69667;52.136;5.424;2023-07-16T07:45:36;4.90;;;2.70;;
76693;SDS011;69667;52.136;5.424;2023-07-16T07:48:02;6.40;;;3.20;;
76693;SDS011;69667;52.136;5.424;2023-07-16T07:50:29;7.50;;;3.50;;
76693;SDS011;69667;52.136;5.424;2023-07-16T07:52:56;7.15;;;3.25;;
76693;SDS011;69667;52.136;5.424;2023-07-16T07:55:23;10.45;;;3.67;;
76693;SDS011;69667;52.136;5.424;2023-07-16T07:57:49;9.98;;;3.40;;
76693;SDS011;69667;52.136;5.424;2023-07-16T08:00:16;7.28;;;3.45;;
76693;SDS011;69667;52.136;5.424;2023-07-16T08:02:43;8.35;;;3.40;;
76693;SDS011;69667;52.136;5.424;2023-07-16T08:05:09;6.45;;;3.35;;
76693;SDS011;69667;52.136;5.424;2023-07-16T08:07:36;7.97;;;2.72;;
76693;SDS011;69667;52.136;5.424;2023-07-16T08:10:03;7.43;;;3.47;;
76693;SDS011;69667;52.136;5.424;2023-07-16T08:12:31;8.02;;;3.00;;
76693;SDS011;69667;52.136;5.424;2023-07-16T08:14:57;6.20;;;3.20;;
76693;SDS011;69667;52.136;5.424;2023-07-16T08:17:24;8.05;;;3.03;;
76693;SDS011;69667;52.136;5.424;2023-07-16T08:19:51;8.77;;;3.30;;
76693;SDS011;69667;52.136;5.424;2023-07-16T08:22:17;8.55;;;3.67;;
76693;SDS011;69667;52.136;5.424;2023-07-16T08:24:44;9.20;;;3.90;;
76693;SDS011;69667;52.136;5.424;2023-07-16T08:27:10;6.68;;;3.25;;
76693;SDS011;69667;52.136;5.424;2023-07-16T08:29:37;7.95;;;3.22;;
76693;SDS011;69667;52.136;5.424;2023-07-16T08:32:04;7.85;;;3.22;;
76693;SDS011;69667;52.136;5.424;2023-07-16T08:34:31;10.30;;;3.60;;
76693;SDS011;69667;52.136;5.424;2023-07-16T08:36:57;7.25;;;3.70;;
76693;SDS011;69667;52.136;5.424;2023-07-16T08:39:24;7.20;;;3.10;;
76693;SDS011;69667;52.136;5.424;2023-07-16T08:41:52;7.53;;;3.55;;
76693;SDS011;69667;52.136;5.424;2023-07-16T08:44:20;9.38;;;3.80;;
76693;SDS011;69667;52.136;5.424;2023-07-16T08:46:47;10.35;;;3.55;;
76693;SDS011;69667;52.136;5.424;2023-07-16T08:49:14;8.82;;;3.58;;
76693;SDS011;69667;52.136;5.424;2023-07-16T08:51:48;9.77;;;3.42;;
76693;SDS011;69667;52.136;5.424;2023-07-16T08:54:15;6.85;;;3.45;;
76693;SDS011;69667;52.136;5.424;2023-07-16T08:59:10;8.30;;;3.35;;
76693;SDS011;69667;52.136;5.424;2023-07-16T09:01:37;8.60;;;3.60;;
76693;SDS011;69667;52.136;5.424;2023-07-16T09:04:05;8.80;;;3.50;;
76693;SDS011;69667;52.136;5.424;2023-07-16T09:06:32;8.15;;;3.67;;
76693;SDS011;69667;52.136;5.424;2023-07-16T09:08:59;6.90;;;3.50;;
76693;SDS011;69667;52.136;5.424;2023-07-16T09:11:25;6.43;;;3.22;;
76693;SDS011;69667;52.136;5.424;2023-07-16T09:13:53;6.93;;;3.50;;
76693;SDS011;69667;52.136;5.424;2023-07-16T09:16:20;7.07;;;3.47;;
76693;SDS011;69667;52.136;5.424;2023-07-16T09:18:47;7.10;;;3.33;;
76693;SDS011;69667;52.136;5.424;2023-07-16T09:21:14;7.97;;;3.38;;
76693;SDS011;69667;52.136;5.424;2023-07-16T09:23:41;7.53;;;3.08;;
76693;SDS011;69667;52.136;5.424;2023-07-16T09:28:35;11.57;;;3.80;;
76693;SDS011;69667;52.136;5.424;2023-07-16T09:31:05;6.82;;;3.83;;
76693;SDS011;69667;52.136;5.424;2023-07-16T09:33:33;9.00;;;3.60;;
76693;SDS011;69667;52.136;5.424;2023-07-16T09:36:03;7.70;;;3.85;;
76693;SDS011;69667;52.136;5.424;2023-07-16T09:38:30;7.32;;;3.17;;
76693;SDS011;69667;52.136;5.424;2023-07-16T09:40:59;6.30;;;3.20;;
76693;SDS011;69667;52.136;5.424;2023-07-16T09:43:27;7.22;;;3.38;;
76693;SDS011;69667;52.136;5.424;2023-07-16T09:45:54;8.23;;;3.25;;
76693;SDS011;69667;52.136;5.424;2023-07-16T09:48:21;7.32;;;3.65;;
76693;SDS011;69667;52.136;5.424;2023-07-16T09:50:51;8.07;;;2.97;;
76693;SDS011;69667;52.136;5.424;2023-07-16T09:53:20;7.63;;;3.38;;
76693;SDS011;69667;52.136;5.424;2023-07-16T09:55:47;7.43;;;3.15;;
76693;SDS011;69667;52.136;5.424;2023-07-16T09:58:14;6.25;;;2.90;;
76693;SDS011;69667;52.136;5.424;2023-07-16T10:00:46;9.65;;;3.22;;
76693;SDS011;69667;52.136;5.424;2023-07-16T10:03:15;9.20;;;3.38;;
76693;SDS011;69667;52.136;5.424;2023-07-16T10:05:43;8.30;;;3.35;;
76693;SDS011;69667;52.136;5.424;2023-07-16T10:08:19;8.68;;;3.08;;
76693;SDS011;69667;52.136;5.424;2023-07-16T10:10:53;10.60;;;3.38;;
76693;SDS011;69667;52.136;5.424;2023-07-16T10:13:23;6.28;;;2.83;;
76693;SDS011;69667;52.136;5.424;2023-07-16T10:15:54;6.43;;;3.28;;
76693;SDS011;69667;52.136;5.424;2023-07-16T10:18:29;9.38;;;3.55;;
76693;SDS011;69667;52.136;5.424;2023-07-16T10:21:02;9.85;;;3.53;;
76693;SDS011;69667;52.136;5.424;2023-07-16T10:23:41;6.40;;;3.33;;
76693;SDS011;69667;52.136;5.424;2023-07-16T10:26:12;7.55;;;3.22;;
76693;SDS011;69667;52.136;5.424;2023-07-16T10:28:45;7.68;;;3.20;;
76693;SDS011;69667;52.136;5.424;2023-07-16T10:31:25;10.27;;;3.70;;
76693;SDS011;69667;52.136;5.424;2023-07-16T10:36:24;8.88;;;3.40;;
76693;SDS011;69667;52.136;5.424;2023-07-16T10:38:51;7.13;;;3.10;;
76693;SDS011;69667;52.136;5.424;2023-07-16T10:41:17;8.40;;;3.45;;
76693;SDS011;69667;52.136;5.424;2023-07-16T10:43:44;7.78;;;3.30;;
76693;SDS011;69667;52.136;5.424;2023-07-16T10:46:11;4.82;;;3.10;;
76693;SDS011;69667;52.136;5.424;2023-07-16T10:48:38;6.40;;;3.50;;
76693;SDS011;69667;52.136;5.424;2023-07-16T10:51:14;7.18;;;2.83;;
76693;SDS011;69667;52.136;5.424;2023-07-16T10:53:42;5.45;;;2.92;;
76693;SDS011;69667;52.136;5.424;2023-07-16T10:56:09;8.45;;;3.40;;
76693;SDS011;69667;52.136;5.424;2023-07-16T10:58:37;6.13;;;3.08;;
76693;SDS011;69667;52.136;5.424;2023-07-16T11:01:04;5.50;;;3.00;;
76693;SDS011;69667;52.136;5.424;2023-07-16T11:03:30;7.40;;;3.22;;
76693;SDS011;69667;52.136;5.424;2023-07-16T11:05:57;6.93;;;3.53;;
76693;SDS011;69667;52.136;5.424;2023-07-16T11:08:24;8.80;;;3.63;;
76693;SDS011;69667;52.136;5.424;2023-07-16T11:10:57;5.22;;;2.63;;
76693;SDS011;69667;52.136;5.424;2023-07-16T11:13:25;6.45;;;2.95;;
76693;SDS011;69667;52.136;5.424;2023-07-16T11:18:22;6.68;;;3.10;;
76693;SDS011;69667;52.136;5.424;2023-07-16T11:20:51;7.43;;;3.08;;
76693;SDS011;69667;52.136;5.424;2023-07-16T11:23:19;5.07;;;2.67;;
76693;SDS011;69667;52.136;5.424;2023-07-16T11:25:46;5.63;;;3.50;;
76693;SDS011;69667;52.136;5.424;2023-07-16T11:28:16;7.65;;;3.10;;
76693;SDS011;69667;52.136;5.424;2023-07-16T11:30:42;5.90;;;2.63;;
76693;SDS011;69667;52.136;5.424;2023-07-16T11:33:12;5.97;;;2.75;;
76693;SDS011;69667;52.136;5.424;2023-07-16T11:35:39;7.25;;;3.00;;
76693;SDS011;69667;52.136;5.424;2023-07-16T11:38:07;8.30;;;2.92;;
76693;SDS011;69667;52.136;5.424;2023-07-16T11:40:34;6.45;;;2.83;;
76693;SDS011;69667;52.136;5.424;2023-07-16T11:43:11;6.90;;;2.70;;
76693;SDS011;69667;52.136;5.424;2023-07-16T11:45:38;6.28;;;2.75;;
76693;SDS011;69667;52.136;5.424;2023-07-16T11:48:04;7.20;;;2.20;;
76693;SDS011;69667;52.136;5.424;2023-07-16T11:50:32;5.18;;;2.40;;
76693;SDS011;69667;52.136;5.424;2023-07-16T11:52:59;8.65;;;2.42;;
76693;SDS011;69667;52.136;5.424;2023-07-16T11:55:27;7.72;;;3.53;;
76693;SDS011;69667;52.136;5.424;2023-07-16T11:57:54;4.38;;;2.10;;
76693;SDS011;69667;52.136;5.424;2023-07-16T12:00:23;5.45;;;1.70;;
76693;SDS011;69667;52.136;5.424;2023-07-16T12:02:50;8.70;;;1.85;;
76693;SDS011;69667;52.136;5.424;2023-07-16T12:05:21;3.58;;;1.35;;
76693;SDS011;69667;52.136;5.424;2023-07-16T12:08:10;5.32;;;1.60;;
76693;SDS011;69667;52.136;5.424;2023-07-16T12:10:40;3.35;;;1.40;;
76693;SDS011;69667;52.136;5.424;2023-07-16T12:13:07;3.90;;;1.30;;
76693;SDS011;69667;52.136;5.424;2023-07-16T12:15:34;4.10;;;1.55;;
76693;SDS011;69667;52.136;5.424;2023-07-16T12:18:00;5.70;;;1.52;;
76693;SDS011;69667;52.136;5.424;2023-07-16T12:20:27;4.25;;;1.60;;
76693;SDS011;69667;52.136;5.424;2023-07-16T12:22:54;2.72;;;1.70;;
76693;SDS011;69667;52.136;5.424;2023-07-16T12:25:20;3.90;;;1.38;;
76693;SDS011;69667;52.136;5.424;2023-07-16T12:27:47;2.88;;;1.20;;
76693;SDS011;69667;52.136;5.424;2023-07-16T12:30:14;3.00;;;1.40;;
76693;SDS011;69667;52.136;5.424;2023-07-16T12:32:41;3.28;;;1.60;;
76693;SDS011;69667;52.136;5.424;2023-07-16T12:35:07;4.00;;;1.30;;
76693;SDS011;69667;52.136;5.424;2023-07-16T12:37:34;4.70;;;1.50;;
76693;SDS011;69667;52.136;5.424;2023-07-16T12:40:03;4.60;;;1.60;;
76693;SDS011;69667;52.136;5.424;2023-07-16T12:42:30;6.70;;;1.50;;
76693;SDS011;69667;52.136;5.424;2023-07-16T12:44:57;3.75;;;1.52;;
76693;SDS011;69667;52.136;5.424;2023-07-16T12:47:24;4.85;;;2.15;;
76693;SDS011;69667;52.136;5.424;2023-07-16T12:49:51;4.80;;;1.17;;
76693;SDS011;69667;52.136;5.424;2023-07-16T12:52:17;4.10;;;1.10;;
76693;SDS011;69667;52.136;5.424;2023-07-16T12:54:44;3.95;;;1.40;;
76693;SDS011;69667;52.136;5.424;2023-07-16T12:57:11;2.95;;;1.10;;
76693;SDS011;69667;52.136;5.424;2023-07-16T12:59:37;3.53;;;1.45;;
76693;SDS011;69667;52.136;5.424;2023-07-16T13:02:04;4.32;;;1.35;;
76693;SDS011;69667;52.136;5.424;2023-07-16T13:04:30;3.83;;;1.30;;
76693;SDS011;69667;52.136;5.424;2023-07-16T13:06:57;3.42;;;1.15;;
76693;SDS011;69667;52.136;5.424;2023-07-16T13:09:23;5.28;;;1.20;;
76693;SDS011;69667;52.136;5.424;2023-07-16T13:11:50;4.63;;;1.10;;
76693;SDS011;69667;52.136;5.424;2023-07-16T13:14:17;4.80;;;1.25;;
76693;SDS011;69667;52.136;5.424;2023-07-16T13:16:43;4.57;;;1.35;;
76693;SDS011;69667;52.136;5.424;2023-07-16T13:19:10;4.25;;;1.15;;
76693;SDS011;69667;52.136;5.424;2023-07-16T13:21:37;3.58;;;1.00;;
76693;SDS011;69667;52.136;5.424;2023-07-16T13:24:04;3.55;;;1.00;;
76693;SDS011;69667;52.136;5.424;2023-07-16T13:26:30;3.67;;;1.00;;
76693;SDS011;69667;52.136;5.424;2023-07-16T13:28:57;3.95;;;1.13;;
76693;SDS011;69667;52.136;5.424;2023-07-16T13:31:23;2.20;;;0.80;;
76693;SDS011;69667;52.136;5.424;2023-07-16T13:33:50;3.28;;;1.02;;
76693;SDS011;69667;52.136;5.424;2023-07-16T13:36:17;4.72;;;1.02;;
76693;SDS011;69667;52.136;5.424;2023-07-16T13:38:44;4.00;;;1.17;;
76693;SDS011;69667;52.136;5.424;2023-07-16T13:41:10;4.57;;;1.20;;
76693;SDS011;69667;52.136;5.424;2023-07-16T13:43:37;4.18;;;0.98;;
76693;SDS011;69667;52.136;5.424;2023-07-16T13:46:04;4.40;;;1.00;;
76693;SDS011;69667;52.136;5.424;2023-07-16T13:48:30;4.47;;;1.00;;
76693;SDS011;69667;52.136;5.424;2023-07-16T13:51:09;3.25;;;1.13;;
76693;SDS011;69667;52.136;5.424;2023-07-16T13:53:36;4.93;;;1.02;;
76693;SDS011;69667;52.136;5.424;2023-07-16T13:56:02;4.70;;;1.10;;
76693;SDS011;69667;52.136;5.424;2023-07-16T13:58:29;4.00;;;1.10;;
76693;SDS011;69667;52.136;5.424;2023-07-16T14:00:56;4.30;;;1.30;;
76693;SDS011;69667;52.136;5.424;2023-07-16T14:03:22;4.85;;;1.17;;
76693;SDS011;69667;52.136;5.424;2023-07-16T14:05:49;3.33;;;0.88;;
76693;SDS011;69667;52.136;5.424;2023-07-16T14:08:15;3.85;;;1.00;;
76693;SDS011;69667;52.136;5.424;2023-07-16T14:10:42;5.93;;;1.00;;
76693;SDS011;69667;52.136;5.424;2023-07-16T14:13:09;3.17;;;0.88;;
76693;SDS011;69667;52.136;5.424;2023-07-16T14:15:36;4.40;;;1.10;;
76693;SDS011;69667;52.136;5.424;2023-07-16T14:18:02;4.68;;;0.90;;
76693;SDS011;69667;52.136;5.424;2023-07-16T14:20:29;4.72;;;1.00;;
76693;SDS011;69667;52.136;5.424;2023-07-16T14:22:56;3.47;;;0.85;;
76693;SDS011;69667;52.136;5.424;2023-07-16T14:25:22;5.47;;;0.98;;
76693;SDS011;69667;52.136;5.424;2023-07-16T14:27:49;5.05;;;0.82;;
76693;SDS011;69667;52.136;5.424;2023-07-16T14:30:16;5.57;;;0.80;;
76693;SDS011;69667;52.136;5.424;2023-07-16T14:32:42;5.30;;;1.10;;
76693;SDS011;69667;52.136;5.424;2023-07-16T14:35:09;2.97;;;0.80;;
76693;SDS011;69667;52.136;5.424;2023-07-16T14:37:55;5.15;;;1.17;;
76693;SDS011;69667;52.136;5.424;2023-07-16T14:40:22;4.32;;;1.00;;
76693;SDS011;69667;52.136;5.424;2023-07-16T14:42:49;2.85;;;0.80;;
76693;SDS011;69667;52.136;5.424;2023-07-16T14:45:15;3.22;;;1.00;;
76693;SDS011;69667;52.136;5.424;2023-07-16T14:47:42;2.35;;;0.90;;
76693;SDS011;69667;52.136;5.424;2023-07-16T14:50:09;3.60;;;0.93;;
76693;SDS011;69667;52.136;5.424;2023-07-16T14:52:36;4.82;;;1.20;;
76693;SDS011;69667;52.136;5.424;2023-07-16T14:55:03;3.40;;;1.00;;
76693;SDS011;69667;52.136;5.424;2023-07-16T14:57:34;5.25;;;1.30;;
76693;SDS011;69667;52.136;5.424;2023-07-16T15:00:02;4.10;;;1.30;;
76693;SDS011;69667;52.136;5.424;2023-07-16T15:02:30;5.28;;;1.10;;
76693;SDS011;69667;52.136;5.424;2023-07-16T15:04:57;6.20;;;1.15;;
76693;SDS011;69667;52.136;5.424;2023-07-16T15:07:23;6.63;;;1.17;;